createdAt,value
2022-09-23T00:01:20.381Z,100129.25
2022-09-23T00:03:49.111Z,100134.00
2022-09-23T00:06:22.071Z,100133.53
2022-09-23T00:08:50.177Z,100132.75
2022-09-23T00:11:20.262Z,100122.50
2022-09-23T00:13:52.366Z,100125.50
2022-09-23T00:16:25.564Z,100125.50
2022-09-23T00:18:52.516Z,100127.03
2022-09-23T00:21:21.578Z,100127.25
2022-09-23T00:23:48.890Z,100111.22
2022-09-23T00:26:19.056Z,100117.94
2022-09-23T00:28:46.448Z,100117.22
2022-09-23T00:31:20.394Z,100107.91
2022-09-23T00:33:48.041Z,100109.41
2022-09-23T00:36:16.274Z,100107.16
2022-09-23T00:38:48.561Z,100111.91
2022-09-23T00:41:16.243Z,100106.66
2022-09-23T00:44:00.256Z,100105.44
2022-09-23T00:46:41.137Z,100104.66
2022-09-23T00:49:16.073Z,100104.44
2022-09-23T00:51:54.552Z,100101.25
2022-09-23T00:54:24.518Z,100093.53
2022-09-23T00:56:51.680Z,100095.72
2022-09-23T00:59:19.249Z,100098.53
2022-09-23T01:01:49.722Z,100094.78
2022-09-23T01:04:16.741Z,100097.53
2022-09-23T01:06:43.556Z,100095.56
2022-09-23T01:09:10.740Z,100090.53
2022-09-23T01:11:38.114Z,100094.53
2022-09-23T01:14:04.973Z,100092.97
2022-09-23T01:16:49.395Z,100089.19
2022-09-23T01:20:05.758Z,100084.88
2022-09-23T01:22:41.909Z,100085.34
2022-09-23T01:25:23.932Z,100087.56
2022-09-23T01:28:15.620Z,100085.78
2022-09-23T01:30:52.463Z,100088.25
2022-09-23T01:33:47.602Z,100086.75
2022-09-23T01:36:26.023Z,100084.00
2022-09-23T01:38:58.478Z,100079.75
2022-09-23T01:41:31.539Z,100078.97
2022-09-23T01:44:13.505Z,100080.69
2022-09-23T01:46:51.479Z,100077.94
2022-09-23T01:49:52.818Z,100085.72
2022-09-23T01:52:44.690Z,100086.44
2022-09-23T01:55:23.972Z,100084.88
2022-09-23T01:57:58.913Z,100086.34
2022-09-23T02:00:29.972Z,100082.28
2022-09-23T02:03:07.074Z,100078.47
2022-09-23T02:05:48.621Z,100077.91
2022-09-23T02:08:24.709Z,100078.34
2022-09-23T02:11:06.665Z,100071.81
2022-09-23T02:13:45.728Z,100065.28
2022-09-23T02:16:25.606Z,100062.53
2022-09-23T02:18:58.846Z,100064.06
2022-09-23T02:21:37.179Z,100067.75
2022-09-23T02:24:22.350Z,100061.97
2022-09-23T02:27:01.581Z,100056.97
2022-09-23T02:29:31.690Z,100057.72
2022-09-23T02:32:05.069Z,100053.47
2022-09-23T02:34:45.504Z,100058.22
2022-09-23T02:37:27.310Z,100061.75
2022-09-23T02:40:13.878Z,100068.19
2022-09-23T02:43:13.308Z,100059.94
2022-09-23T02:45:40.318Z,100066.69
2022-09-23T02:48:13.756Z,100057.88
2022-09-23T02:50:43.270Z,100055.63
2022-09-23T02:53:11.008Z,100056.31
2022-09-23T02:55:38.776Z,100053.50
2022-09-23T02:58:05.782Z,100049.19
2022-09-23T03:00:50.243Z,100057.94
2022-09-23T03:03:20.507Z,100049.88
2022-09-23T03:05:56.298Z,100049.81
2022-09-23T03:08:36.886Z,100045.72
2022-09-23T03:11:13.195Z,100051.69
2022-09-23T03:14:16.908Z,100046.16
2022-09-23T03:16:53.070Z,100046.09
2022-09-23T03:19:30.316Z,100046.03
2022-09-23T03:22:08.253Z,100051.94
2022-09-23T03:24:38.035Z,100046.91
2022-09-23T03:27:13.980Z,100043.31
2022-09-23T03:29:47.850Z,100050.56
2022-09-23T03:32:17.233Z,100054.72
2022-09-23T03:34:47.887Z,100053.91
2022-09-23T03:37:41.320Z,100054.03
2022-09-23T03:40:23.488Z,100055.94
2022-09-23T03:42:51.817Z,100041.91
2022-09-23T03:45:26.290Z,100051.41
2022-09-23T03:47:53.395Z,100052.06
2022-09-23T03:50:23.093Z,100055.78
2022-09-23T03:52:50.788Z,100048.97
2022-09-23T03:55:19.713Z,100046.13
2022-09-23T03:57:46.895Z,100052.00
2022-09-23T04:00:15.250Z,100040.78
2022-09-23T04:02:42.261Z,100050.13
2022-09-23T04:05:10.338Z,100048.63
2022-09-23T04:07:37.500Z,100049.59
2022-09-23T04:10:06.159Z,100049.78
2022-09-23T04:12:33.346Z,100044.78
2022-09-23T04:15:00.275Z,100050.19
2022-09-23T04:17:27.418Z,100047.91
2022-09-23T04:19:54.631Z,100045.81
2022-09-23T04:22:21.631Z,100045.53
2022-09-23T04:24:49.359Z,100049.41
2022-09-23T04:27:16.860Z,100054.06
2022-09-23T04:29:43.953Z,100044.28
2022-09-23T04:32:11.085Z,100049.78
2022-09-23T04:34:38.356Z,100051.97
2022-09-23T04:37:05.432Z,100053.78
2022-09-23T04:39:32.457Z,100056.03
2022-09-23T04:41:59.799Z,100047.34
2022-09-23T04:44:28.382Z,100057.66
2022-09-23T04:46:55.350Z,100048.19
2022-09-23T04:49:24.740Z,100041.28
2022-09-23T04:51:51.796Z,100042.81
2022-09-23T04:54:19.066Z,100042.31
2022-09-23T04:56:46.170Z,100040.13
2022-09-23T04:59:13.114Z,100043.16
2022-09-23T05:01:40.276Z,100042.47
2022-09-23T05:04:11.202Z,100047.31
2022-09-23T05:06:38.429Z,100045.59
2022-09-23T05:09:07.778Z,100053.94
2022-09-23T05:11:35.424Z,100046.53
2022-09-23T05:14:02.563Z,100059.13
2022-09-23T05:16:29.872Z,100066.13
2022-09-23T05:18:58.134Z,100063.47
2022-09-23T05:21:30.301Z,100064.75
2022-09-23T05:24:01.128Z,100066.91
2022-09-23T05:26:30.911Z,100072.31
2022-09-23T05:28:59.103Z,100076.19
2022-09-23T05:31:28.372Z,100076.03
2022-09-23T05:34:02.157Z,100081.97
2022-09-23T05:36:34.461Z,100096.41
2022-09-23T05:39:05.053Z,100081.78
2022-09-23T05:41:32.886Z,100083.91
2022-09-23T05:44:00.039Z,100084.59
2022-09-23T05:46:29.515Z,100090.63
2022-09-23T05:49:02.196Z,100084.97
2022-09-23T05:51:32.011Z,100089.78
2022-09-23T05:54:00.237Z,100091.81
2022-09-23T05:56:28.964Z,100097.25
2022-09-23T05:58:58.436Z,100094.66
2022-09-23T06:01:28.279Z,100093.81
2022-09-23T06:03:57.059Z,100104.88
2022-09-23T06:06:28.335Z,100101.25
2022-09-23T06:08:55.507Z,100108.63
2022-09-23T06:11:22.801Z,100095.78
2022-09-23T06:13:54.300Z,100103.63
2022-09-23T06:16:21.527Z,100102.22
2022-09-23T06:18:48.511Z,100112.13
2022-09-23T06:21:19.047Z,100101.75
2022-09-23T06:23:46.521Z,100107.75
2022-09-23T06:26:15.767Z,100115.09
2022-09-23T06:28:44.788Z,100124.06
2022-09-23T06:31:15.070Z,100129.75
2022-09-23T06:33:45.944Z,100123.94
2022-09-23T06:36:25.023Z,100132.97
2022-09-23T06:38:57.855Z,100138.13
2022-09-23T06:41:25.108Z,100144.78
2022-09-23T06:43:55.692Z,100151.63
2022-09-23T06:46:22.650Z,100151.09
2022-09-23T06:48:51.183Z,100156.53
2022-09-23T06:51:19.890Z,100155.59
2022-09-23T06:53:49.479Z,100160.31
2022-09-23T06:56:17.968Z,100166.78
2022-09-23T06:58:45.020Z,100167.88
2022-09-23T07:01:16.325Z,100176.13
2022-09-23T07:03:45.099Z,100176.88
2022-09-23T07:06:12.423Z,100183.06
2022-09-23T07:08:43.467Z,100184.13
2022-09-23T07:11:12.561Z,100182.66
2022-09-23T07:13:41.275Z,100179.56
2022-09-23T07:16:09.841Z,100182.72
2022-09-23T07:18:37.666Z,100187.34
2022-09-23T07:21:09.586Z,100189.91
2022-09-23T07:23:37.872Z,100181.59
2022-09-23T07:26:05.981Z,100181.88
2022-09-23T07:28:32.953Z,100188.53
2022-09-23T07:31:10.488Z,100184.28
2022-09-23T07:33:39.905Z,100181.66
2022-09-23T07:36:10.227Z,100186.28
2022-09-23T07:38:41.551Z,100185.38
2022-09-23T07:41:14.905Z,100192.03
2022-09-23T07:43:48.922Z,100194.25
2022-09-23T07:46:17.724Z,100189.34
2022-09-23T07:48:46.051Z,100188.97
2022-09-23T07:51:18.580Z,100191.91
2022-09-23T07:53:50.707Z,100191.16
2022-09-23T07:56:22.097Z,100187.81
2022-09-23T07:59:00.485Z,100187.81
2022-09-23T08:01:33.223Z,100188.44
2022-09-23T08:04:05.654Z,100188.56
2022-09-23T08:06:35.201Z,100192.22
2022-09-23T08:09:04.590Z,100191.41
2022-09-23T08:11:31.804Z,100184.00
2022-09-23T08:13:58.807Z,100170.81
2022-09-23T08:16:25.981Z,100181.75
2022-09-23T08:18:53.056Z,100181.75
2022-09-23T08:21:21.676Z,100169.47
2022-09-23T08:23:49.698Z,100170.38
2022-09-23T08:26:21.538Z,100168.16
2022-09-23T08:28:50.292Z,100159.75
2022-09-23T08:31:17.511Z,100161.00
2022-09-23T08:33:44.599Z,100155.00
2022-09-23T08:36:11.823Z,100160.16
2022-09-23T08:38:39.014Z,100152.63
2022-09-23T08:41:36.259Z,100154.81
2022-09-23T08:44:13.986Z,100152.81
2022-09-23T08:46:49.737Z,100150.56
2022-09-23T08:49:26.081Z,100146.47
2022-09-23T08:51:54.973Z,100141.44
2022-09-23T08:54:27.965Z,100145.22
2022-09-23T08:57:00.265Z,100142.09
2022-09-23T08:59:42.871Z,100136.28
2022-09-23T09:02:18.172Z,100133.38
2022-09-23T09:04:50.388Z,100141.78
2022-09-23T09:07:38.809Z,100136.19
2022-09-23T09:10:12.202Z,100125.56
2022-09-23T09:12:47.949Z,100124.41
2022-09-23T09:15:19.538Z,100123.31
2022-09-23T09:18:06.518Z,100114.69
2022-09-23T09:20:59.089Z,100115.53
2022-09-23T09:23:40.679Z,100115.16
2022-09-23T09:26:17.745Z,100102.31
2022-09-23T09:29:33.762Z,100104.78
2022-09-23T09:32:29.432Z,100103.38
2022-09-23T09:35:05.653Z,100107.25
2022-09-23T09:37:43.294Z,100100.09
2022-09-23T09:40:15.230Z,100101.28
2022-09-23T09:42:46.974Z,100093.75
2022-09-23T09:45:41.857Z,100084.03
2022-09-23T09:48:11.722Z,100091.34
2022-09-23T09:50:43.845Z,100088.16
2022-09-23T09:53:22.460Z,100086.25
2022-09-23T09:56:04.626Z,100084.03
2022-09-23T09:58:41.714Z,100088.88
2022-09-23T10:01:23.318Z,100087.41
2022-09-23T10:03:55.693Z,100083.09
2022-09-23T10:06:27.920Z,100083.25
2022-09-23T10:09:01.857Z,100075.63
2022-09-23T10:11:33.013Z,100076.19
2022-09-23T10:14:00.542Z,100082.22
2022-09-23T10:16:31.863Z,100082.94
2022-09-23T10:19:00.883Z,100076.78
2022-09-23T10:21:34.897Z,100076.06
2022-09-23T10:24:05.746Z,100074.16
2022-09-23T10:26:39.957Z,100075.09
2022-09-23T10:29:40.818Z,100074.91
2022-09-23T10:32:14.524Z,100071.16
2022-09-23T10:34:46.686Z,100077.66
2022-09-23T10:37:30.217Z,100065.41
2022-09-23T10:40:19.135Z,100068.97
2022-09-23T10:43:08.305Z,100072.88
2022-09-23T10:45:58.582Z,100058.66
2022-09-23T10:48:52.621Z,100067.06
2022-09-23T10:51:38.891Z,100057.53
2022-09-23T10:54:18.222Z,100058.31
2022-09-23T10:57:41.775Z,100053.03
2022-09-23T11:00:23.405Z,100048.94
2022-09-23T11:03:11.758Z,100054.03
2022-09-23T11:06:05.324Z,100043.53
2022-09-23T11:08:42.736Z,100046.00
2022-09-23T11:11:17.541Z,100046.72
2022-09-23T11:14:17.197Z,100034.22
2022-09-23T11:16:51.075Z,100032.91
2022-09-23T11:19:56.068Z,100029.16
2022-09-23T11:22:23.232Z,100027.47
2022-09-23T11:24:53.244Z,100024.28
2022-09-23T11:28:02.200Z,100018.16
2022-09-23T11:30:45.293Z,100014.97
2022-09-23T11:33:18.257Z,100006.75
2022-09-23T11:36:05.060Z,100006.75
2022-09-23T11:38:37.571Z,100004.91
2022-09-23T11:41:22.502Z,99990.34
2022-09-23T11:43:58.906Z,99992.19
2022-09-23T11:46:48.788Z,99982.88
2022-09-23T11:49:29.852Z,99977.69
2022-09-23T11:52:08.991Z,99973.22
2022-09-23T11:54:49.674Z,99972.44
2022-09-23T11:57:45.853Z,99965.34
2022-09-23T12:00:22.143Z,99961.25
2022-09-23T12:03:09.394Z,99957.50
2022-09-23T12:06:28.898Z,99959.56
2022-09-23T12:09:02.296Z,99957.13
2022-09-23T12:11:50.605Z,99957.09
2022-09-23T12:14:36.276Z,99954.69
2022-09-23T12:17:06.125Z,99955.97
2022-09-23T12:19:54.754Z,99954.81
2022-09-23T12:22:47.833Z,99947.03
2022-09-23T12:25:49.016Z,99957.50
2022-09-23T12:28:28.348Z,99951.91
2022-09-23T12:30:59.631Z,99949.28
2022-09-23T12:33:33.206Z,99938.84
2022-09-23T12:36:14.936Z,99940.34
2022-09-23T12:38:53.336Z,99939.03
2022-09-23T12:41:27.289Z,99936.78
2022-09-23T12:44:29.715Z,99932.28
2022-09-23T12:47:28.054Z,99937.91
2022-09-23T12:49:56.679Z,99925.59
2022-09-23T12:52:33.515Z,99929.31
2022-09-23T12:55:23.189Z,99922.41
2022-09-23T12:57:50.645Z,99922.06
2022-09-23T13:00:20.601Z,99907.13
2022-09-23T13:02:47.737Z,99908.97
2022-09-23T13:05:45.718Z,99903.94
2022-09-23T13:08:19.121Z,99900.41
2022-09-23T13:11:00.054Z,99898.16
2022-09-23T13:13:33.284Z,99895.53
2022-09-23T13:16:57.081Z,99898.34
2022-09-23T13:19:27.169Z,99889.94
2022-09-23T13:22:07.485Z,99884.19
2022-09-23T13:24:40.270Z,99882.53
2022-09-23T13:27:30.696Z,99874.31
2022-09-23T13:30:22.437Z,99868.88
2022-09-23T13:33:16.769Z,99872.47
2022-09-23T13:35:51.464Z,99872.25
2022-09-23T13:38:20.191Z,99862.75
2022-09-23T13:40:47.931Z,99863.88
2022-09-23T13:43:23.720Z,99851.59
2022-09-23T13:45:51.562Z,99852.31
2022-09-23T13:48:23.623Z,99853.25
2022-09-23T13:51:30.274Z,99845.59
2022-09-23T13:53:59.798Z,99840.38
2022-09-23T13:56:29.843Z,99849.31
2022-09-23T13:59:27.402Z,99837.22
2022-09-23T14:02:11.821Z,99842.63
2022-09-23T14:04:39.507Z,99837.19
2022-09-23T14:07:13.286Z,99828.97
2022-09-23T14:09:47.038Z,99830.09
2022-09-23T14:12:15.130Z,99831.03
2022-09-23T14:14:43.483Z,99826.56
2022-09-23T14:17:17.692Z,99823.19
2022-09-23T14:19:46.164Z,99827.50
2022-09-23T14:22:42.471Z,99829.19
2022-09-23T14:25:15.605Z,99820.59
2022-09-23T14:27:44.455Z,99814.06
2022-09-23T14:30:20.045Z,99812.41
2022-09-23T14:32:50.004Z,99809.41
2022-09-23T14:35:27.522Z,99809.78
2022-09-23T14:38:16.957Z,99797.28
2022-09-23T14:41:15.260Z,99791.88
2022-09-23T14:44:02.127Z,99792.25
2022-09-23T14:46:35.051Z,99790.03
2022-09-23T14:49:05.792Z,99791.91
2022-09-23T14:51:56.197Z,99783.13
2022-09-23T14:54:36.051Z,99787.44
2022-09-23T14:57:18.428Z,99781.06
2022-09-23T15:00:14.040Z,99770.84
2022-09-23T15:03:00.226Z,99761.34
2022-09-23T15:05:44.579Z,99760.22
2022-09-23T15:08:23.094Z,99759.28
2022-09-23T15:10:50.551Z,99765.06
2022-09-23T15:13:22.619Z,99755.56
2022-09-23T15:15:53.593Z,99756.66
2022-09-23T15:18:28.904Z,99760.22
2022-09-23T15:21:01.174Z,99749.59
2022-09-23T15:23:41.834Z,99750.53
2022-09-23T15:26:18.463Z,99754.63
2022-09-23T15:28:46.717Z,99750.31
2022-09-23T15:31:16.025Z,99744.75
2022-09-23T15:33:47.795Z,99747.91
2022-09-23T15:36:27.312Z,99745.22
2022-09-23T15:38:58.998Z,99743.34
2022-09-23T15:41:26.750Z,99738.50
2022-09-23T15:43:56.570Z,99740.69
2022-09-23T15:46:28.281Z,99735.31
2022-09-23T15:49:04.815Z,99736.63
2022-09-23T15:51:32.082Z,99730.41
2022-09-23T15:53:59.227Z,99731.31
2022-09-23T15:56:29.204Z,99735.72
2022-09-23T15:58:56.121Z,99734.19
2022-09-23T16:01:29.584Z,99727.88
2022-09-23T16:03:56.813Z,99725.75
2022-09-23T16:06:27.899Z,99720.34
2022-09-23T16:08:55.029Z,99726.16
2022-09-23T16:11:24.939Z,99716.41
2022-09-23T16:13:52.440Z,99717.31
2022-09-23T16:16:23.228Z,99718.22
2022-09-23T16:18:52.340Z,99719.38
2022-09-23T16:21:24.201Z,99725.78
2022-09-23T16:23:51.599Z,99724.44
2022-09-23T16:26:21.042Z,99719.19
2022-09-23T16:28:53.474Z,99726.72
2022-09-23T16:31:22.377Z,99720.06
2022-09-23T16:33:51.411Z,99719.59
2022-09-23T16:36:23.194Z,99714.69
2022-09-23T16:38:50.420Z,99714.94
2022-09-23T16:41:17.443Z,99720.66
2022-09-23T16:43:44.592Z,99718.41
2022-09-23T16:46:13.552Z,99721.47
2022-09-23T16:48:41.747Z,99717.09
2022-09-23T16:51:15.026Z,99718.59
2022-09-23T16:53:42.798Z,99728.44
2022-09-23T16:56:13.159Z,99720.31
2022-09-23T16:58:42.860Z,99715.63
2022-09-23T17:01:34.613Z,99719.66
2022-09-23T17:04:01.878Z,99720.47
2022-09-23T17:06:29.354Z,99715.97
2022-09-23T17:08:59.318Z,99705.56
2022-09-23T17:11:32.180Z,99713.31
2022-09-23T17:14:01.236Z,99711.03
2022-09-23T17:16:31.362Z,99711.72
2022-09-23T17:18:59.012Z,99706.09
2022-09-23T17:21:27.968Z,99712.78
2022-09-23T17:23:58.045Z,99710.63
2022-09-23T17:26:26.506Z,99716.03
2022-09-23T17:28:55.495Z,99712.56
2022-09-23T17:31:23.689Z,99715.94
2022-09-23T17:33:52.055Z,99710.03
2022-09-23T17:36:20.451Z,99715.19
2022-09-23T17:38:48.646Z,99714.19
2022-09-23T17:41:17.288Z,99710.75
2022-09-23T17:43:46.771Z,99713.00
2022-09-23T17:46:18.761Z,99714.06
2022-09-23T17:48:46.742Z,99706.84
2022-09-23T17:51:19.917Z,99716.47
2022-09-23T17:53:51.308Z,99714.56
2022-09-23T17:56:21.044Z,99712.34
2022-09-23T17:58:49.573Z,99709.44
2022-09-23T18:01:19.640Z,99715.53
2022-09-23T18:03:47.488Z,99713.34
2022-09-23T18:06:20.488Z,99709.63
2022-09-23T18:08:51.352Z,99705.19
2022-09-23T18:11:24.182Z,99709.50
2022-09-23T18:13:52.642Z,99704.78
2022-09-23T18:16:24.922Z,99709.09
2022-09-23T18:18:58.006Z,99706.38
2022-09-23T18:21:28.619Z,99702.91
2022-09-23T18:24:06.533Z,99705.72
2022-09-23T18:26:47.201Z,99702.97
2022-09-23T18:29:15.974Z,99711.56
2022-09-23T18:31:44.456Z,99705.34
2022-09-23T18:34:19.060Z,99708.88
2022-09-23T18:36:46.255Z,99703.41
2022-09-23T18:39:13.651Z,99712.47
2022-09-23T18:41:41.258Z,99713.03
2022-09-23T18:44:09.788Z,99706.03
2022-09-23T18:46:37.472Z,99698.78
2022-09-23T18:49:22.924Z,99702.31
2022-09-23T18:51:55.975Z,99699.34
2022-09-23T18:54:27.392Z,99696.09
2022-09-23T18:56:55.712Z,99687.56
2022-09-23T18:59:25.988Z,99689.84
2022-09-23T19:01:59.054Z,99689.38
2022-09-23T19:04:27.419Z,99698.41
2022-09-23T19:06:56.773Z,99689.44
2022-09-23T19:09:27.068Z,99692.72
2022-09-23T19:11:54.317Z,99687.97
2022-09-23T19:14:21.842Z,99685.22
2022-09-23T19:16:52.011Z,99680.25
2022-09-23T19:19:21.619Z,99689.78
2022-09-23T19:21:48.557Z,99687.53
2022-09-23T19:24:16.067Z,99691.53
2022-09-23T19:26:44.457Z,99685.56
2022-09-23T19:29:19.458Z,99672.53
2022-09-23T19:31:46.673Z,99670.50
2022-09-23T19:34:20.400Z,99677.03
2022-09-23T19:36:47.797Z,99678.56
2022-09-23T19:39:19.144Z,99674.56
2022-09-23T19:41:46.965Z,99678.09
2022-09-23T19:44:17.159Z,99682.09
2022-09-23T19:46:53.492Z,99678.59
2022-09-23T19:49:24.703Z,99681.13
2022-09-23T19:51:51.896Z,99687.38
2022-09-23T19:54:20.779Z,99683.66
2022-09-23T19:56:49.758Z,99678.91
2022-09-23T19:59:19.031Z,99690.19
2022-09-23T20:01:48.399Z,99683.16
2022-09-23T20:04:16.897Z,99675.16
2022-09-23T20:06:49.711Z,99681.41
2022-09-23T20:09:17.060Z,99679.41
2022-09-23T20:11:44.417Z,99674.13
2022-09-23T20:14:12.089Z,99670.38
2022-09-23T20:16:40.627Z,99669.63
2022-09-23T20:19:10.493Z,99669.13
2022-09-23T20:21:37.763Z,99668.63
2022-09-23T20:24:07.053Z,99667.13
2022-09-23T20:26:52.917Z,99668.38
2022-09-23T20:29:20.561Z,99662.13
2022-09-23T20:31:47.944Z,99672.38
2022-09-23T20:34:15.241Z,99664.63
2022-09-23T20:36:44.852Z,99667.63
2022-09-23T20:39:12.912Z,99670.63
2022-09-23T20:41:40.731Z,99657.09
2022-09-23T20:44:12.594Z,99655.09
2022-09-23T20:46:47.780Z,99651.59
2022-09-23T20:49:17.318Z,99652.59
2022-09-23T20:51:44.626Z,99650.34
2022-09-23T20:54:12.332Z,99646.31
2022-09-23T20:56:39.677Z,99645.59
2022-09-23T20:59:06.680Z,99654.09
2022-09-23T21:01:35.334Z,99646.06
2022-09-23T21:04:08.191Z,99645.56
2022-09-23T21:06:36.777Z,99647.28
2022-09-23T21:09:06.088Z,99646.56
2022-09-23T21:11:35.747Z,99648.78
2022-09-23T21:14:02.968Z,99647.03
2022-09-23T21:16:30.707Z,99645.78
2022-09-23T21:18:59.095Z,99644.00
2022-09-23T21:21:26.794Z,99652.78
2022-09-23T21:23:54.203Z,99645.53
2022-09-23T21:26:23.619Z,99645.00
2022-09-23T21:29:01.207Z,99638.97
2022-09-23T21:31:33.829Z,99637.97
2022-09-23T21:34:09.473Z,99639.72
2022-09-23T21:36:41.519Z,99633.72
2022-09-23T21:39:10.540Z,99640.19
2022-09-23T21:41:38.266Z,99633.69
2022-09-23T21:44:06.786Z,99631.94
2022-09-23T21:46:34.499Z,99630.44
2022-09-23T21:49:03.703Z,99638.44
2022-09-23T21:51:40.846Z,99635.41
2022-09-23T21:54:15.914Z,99634.69
2022-09-23T21:56:44.272Z,99629.41
2022-09-23T21:59:11.533Z,99631.91
2022-09-23T22:01:42.067Z,99628.13
2022-09-23T22:04:20.920Z,99616.13
2022-09-23T22:06:49.280Z,99628.88
2022-09-23T22:09:19.888Z,99616.41
2022-09-23T22:12:07.959Z,99621.63
2022-09-23T22:14:35.840Z,99621.13
2022-09-23T22:17:05.208Z,99618.88
2022-09-23T22:19:41.589Z,99614.34
2022-09-23T22:22:15.993Z,99620.59
2022-09-23T22:24:43.907Z,99616.84
2022-09-23T22:27:14.801Z,99609.63
2022-09-23T22:30:03.247Z,99618.41
2022-09-23T22:32:43.556Z,99612.91
2022-09-23T22:35:17.746Z,99623.44
2022-09-23T22:37:48.260Z,99612.19
2022-09-23T22:40:15.887Z,99615.69
2022-09-23T22:42:43.135Z,99610.22
2022-09-23T22:45:11.684Z,99613.47
2022-09-23T22:47:40.880Z,99614.72
2022-09-23T22:50:09.272Z,99611.47
2022-09-23T22:52:41.795Z,99615.47
2022-09-23T22:55:09.375Z,99608.22
2022-09-23T22:57:36.763Z,99614.25
2022-09-23T23:00:08.714Z,99605.25
2022-09-23T23:02:55.587Z,99600.97
2022-09-23T23:05:33.120Z,99609.50
2022-09-23T23:08:01.391Z,99604.00
2022-09-23T23:10:28.585Z,99603.00
2022-09-23T23:12:55.842Z,99596.22
2022-09-23T23:15:22.899Z,99589.72
2022-09-23T23:17:51.997Z,99588.94
2022-09-23T23:20:20.136Z,99593.44
2022-09-23T23:22:47.229Z,99582.41
2022-09-23T23:25:18.862Z,99586.16
2022-09-23T23:27:45.736Z,99583.41
2022-09-23T23:30:16.060Z,99576.13
2022-09-23T23:32:42.907Z,99575.59
2022-09-23T23:35:09.965Z,99574.34
2022-09-23T23:37:37.424Z,99585.34
2022-09-23T23:40:05.629Z,99579.59
2022-09-23T23:42:32.965Z,99581.84
2022-09-23T23:45:00.126Z,99582.81
2022-09-23T23:47:27.236Z,99580.78
2022-09-23T23:49:56.693Z,99583.53
2022-09-23T23:52:26.757Z,99585.00
2022-09-23T23:54:53.871Z,99586.44
2022-09-23T23:57:20.748Z,99577.69
2022-09-23T23:59:47.914Z,99576.69
